actionteaser.ru alexa rank chart, actionteaser.ru alexa rank daily changes

actionteaser.ru alexa rank chart, actionteaser.ru alexa rank daily changes

actionteaser.ru
Actual rank:
53 806

RANK HISTORY

Date Rank Diff
2018/05/22 53 806 -19 613
2018/05/21 73 419 +19 145
2018/05/20 54 274 +4 336
2018/05/19 49 938 +52
2018/05/18 49 886 +6 606
2018/05/17 43 280 -1 027
2018/05/16 44 307 -17 241
2018/05/15 61 548 -8 494
2018/05/14 70 042 +3 281
2018/05/13 66 761 +5 171
2018/05/12 61 590 +8 134
2018/05/11 53 456 -10 979
2018/05/10 64 435 +5 080
2018/05/09 59 355 +8 203
2018/05/08 51 152 -6 800
2018/05/07 57 952 +1 415
2018/05/06 56 537 +5 342
2018/05/05 51 195 -5 387
2018/05/04 56 582 +22 322
2018/05/03 34 260 -28 040
2018/05/02 62 300 +28 580
2018/05/01 33 720 -15 576
2018/04/30 49 296 -8 395
2018/04/29 57 691 -18 508
2018/04/28 76 199 -15 629
2018/04/27 91 828 +11 054
2018/04/26 80 774 +10 979
2018/04/25 69 795 +10 782
2018/04/24 59 013 -32 815
2018/04/23 91 828 -12 935
2018/04/22 104 763 +14 956
2018/04/21 89 807 +10 438
2018/04/20 79 369 +1 248
2018/04/19 78 121 +14 025
2018/04/18 64 096 +16 141
2018/04/17 47 955 -27 840
2018/04/16 75 795 -1 349
2018/04/15 77 144 +15 959
2018/04/14 61 185 -23 896
2018/04/13 85 081 -8 955
2018/04/12 94 036 +11 101
2018/04/11 82 935 -2 525
2018/04/10 85 460 +26 903
2018/04/09 58 557 -45 519
2018/04/08 104 076 +4 021
2018/04/07 100 055 -30 994
2018/04/06 131 049 +33 345
2018/04/05 97 704 -9 895
2018/04/04 107 599 +16 755
2018/04/03 90 844 +37 384
2018/04/02 53 460 -16 836
2018/04/01 70 296 -10 565
2018/03/31 80 861 +20 309
2018/03/30 60 552 -14 067
2018/03/29 74 619 +123
2018/03/28 74 496 -15 939
2018/03/27 90 435 -1 313
2018/03/26 91 748 -6 786
2018/03/25 98 534 +19 266
2018/03/24 79 268 +4 534
2018/03/23 74 734

WIDGET FOR YOUR SITE

DOMAINS WITH THE NEAREST RANK

Domain Rank
otakurox.com 53 801
bestjobs.eu 53 802
office-guru.ru 53 803
moviego.net 53 804
islom.uz 53 805
actionteaser.ru 53 806
iwebstech.com 53 807
efortuna.ro 53 808
nerutorik.org 53 809
kratkoe.com 53 810
bpm-power.com 53 811

DOMAINS WITH THE NEAREST RANK BY TLD .ru

Domain Rank
cinref.ru 53 691
bellaestetica.ru 53 697
sonnik-enigma.ru 53 735
all-sro.ru 53 785
office-guru.ru 53 803
actionteaser.ru 53 806
top-shop.ru 53 838
zagolovki.ru 53 844
partprice.ru 53 853
allcalc.ru 53 875
rosminzdrav.ru 53 876